Aviation Digital Data Service (ADDS)

Output produced by METARs form (2351 UTC 27 February 2021)
found at http://www.aviationweather.gov/metar/data/
 
LFRN 272330Z AUTO 03008KT 8000 NSC 04/02 Q1034 NOSIG
TAF LFRN 272300Z 2800/2824 04010KT CAVOK